Etusivu
METAR-TAF:

METAR-TAF

Lentoasemat :

Ghanzi, Botswana

Leveyspiiri: 21-42S, Pituuspiiri: 021-39E, korkeus merenpinnasta: 1131 m

METAR: puuttuu

Aika: 00:18 (22:18 UTC)

Sääennuste

Tämä raportti tehtiin 10 tuntia ja 18 minuuttia sitten, kello 12.00 UTC
Ennuste voimassa 07. päivästä klo 15 UTC - 07. päivään klo 24 UTC
Tuuli 5 kn lännestä
Näkyvyys 10 km tai enemmän
Hajanaisia pilviä 2000 ft:n korkeudessa
Muutamia pilviä 3500 ft:n korkeudessa, Cumulonimbus.
Hajanaisia pilviä 7000 ft:n korkeudessa
Todennäköisyys 30% :
Ajoittain
07. päivästä klo 15 UTC - 07. päivään klo 24 UTC
ukkosmyrsky, sadetta

TAF: FBGZ 071200Z 0715/0724 26005KT 9999 SCT020 FEW035CB SCT070 PROB30 TEMPO 0715/0724 TSRA

Säähavainnot ja -ennusteet yli 4000 lentoasemalta (METAR- ja TAF-raportit).

Käytössä olevat sääasemat on merkitty karttaan keltaisilla ja punaisilla pisteillä.

Aseta hiiri pisteen päälle nähdäksesi sääaseman nimen.

Klikkaa sitten nähdäksesi säähavainnot ja -ennusteet.

Kartan vaihtaminen: klikkaa mustalla rastilla varustettuja vihreitä pisteitä, niin voit zoomata sisään; viivalla varustettua vihreää pistettä, niin voit zoomata ulos tai vihreitä nuolia, niin pääset viereisille kartoille.


METAR-TAF: